createdAt,value
2018-05-19T00:08:54.628Z,98698.29
2018-05-19T00:29:26.727Z,98709.11
2018-05-19T00:50:02.927Z,98689.81
2018-05-19T01:10:39.114Z,98678.73
2018-05-19T01:31:11.315Z,98670.18
2018-05-19T01:51:50.868Z,98665.38
2018-05-19T02:12:31.077Z,98656.55
2018-05-19T02:33:05.295Z,98634.39
2018-05-19T02:53:37.311Z,98625.02
2018-05-19T03:14:10.432Z,98627.29
2018-05-19T03:34:45.948Z,98629.21
2018-05-19T03:55:20.056Z,98634.64
2018-05-19T04:15:52.253Z,98654.52
2018-05-19T04:36:30.621Z,98676.89
2018-05-19T04:57:05.561Z,98692.56
2018-05-19T05:17:41.098Z,98693.84
2018-05-19T05:38:15.181Z,98708.42
2018-05-19T05:58:48.522Z,98709.86
2018-05-19T06:19:22.351Z,98714.40
2018-05-19T06:39:57.623Z,98712.16
2018-05-19T07:00:31.184Z,98705.09
2018-05-19T07:21:07.240Z,98706.84
2018-05-19T07:41:40.363Z,98716.77
2018-05-19T08:02:13.489Z,98721.13
2018-05-19T08:22:48.756Z,98712.06
2018-05-19T08:43:43.394Z,98711.88
2018-05-19T09:04:21.424Z,98700.52
2018-05-19T09:24:54.843Z,98698.55
2018-05-19T09:45:31.201Z,98696.67
2018-05-19T10:06:05.421Z,98704.25
2018-05-19T10:26:39.433Z,98686.35
2018-05-19T10:47:10.726Z,98680.38
2018-05-19T11:07:44.753Z,98666.63
2018-05-19T11:28:21.535Z,98663.88
2018-05-19T11:48:55.297Z,98646.79
2018-05-19T12:09:30.570Z,98639.74
2018-05-19T12:30:06.984Z,98623.95
2018-05-19T12:50:41.111Z,98611.72
2018-05-19T13:11:14.413Z,98601.95
2018-05-19T13:31:47.353Z,98600.99
2018-05-19T13:52:20.895Z,98580.20
2018-05-19T14:12:56.670Z,98560.17
2018-05-19T14:33:31.017Z,98555.30
2018-05-19T14:54:03.215Z,98551.22
2018-05-19T15:14:38.492Z,98539.96
2018-05-19T15:35:15.606Z,98541.61
2018-05-19T15:55:52.217Z,98532.35
2018-05-19T16:16:23.998Z,98539.76
2018-05-19T16:37:00.779Z,98528.66
2018-05-19T16:57:35.476Z,98535.38
2018-05-19T17:18:12.887Z,98543.52
2018-05-19T17:38:48.362Z,98525.62
2018-05-19T17:59:24.358Z,98543.34
2018-05-19T18:19:59.624Z,98558.72
2018-05-19T18:40:35.818Z,98573.34
2018-05-19T19:01:09.283Z,98596.66
2018-05-19T19:21:42.371Z,98628.40
2018-05-19T19:42:14.270Z,98654.19
2018-05-19T20:02:46.467Z,98677.43
2018-05-19T20:23:20.812Z,98724.20
2018-05-19T20:43:55.355Z,98725.23
2018-05-19T21:04:29.785Z,98731.35
2018-05-19T21:25:03.553Z,98725.48
2018-05-19T21:45:36.678Z,98728.20
2018-05-19T22:06:09.806Z,98731.92
2018-05-19T22:26:42.005Z,98735.59
2018-05-19T22:47:15.452Z,98732.33
2018-05-19T23:07:48.553Z,98731.35
2018-05-19T23:28:20.752Z,98747.62
2018-05-19T23:48:54.179Z,98761.84
